createdAt,value
2022-10-25T00:00:44.754Z,12.96
2022-10-25T00:01:44.913Z,12.99
2022-10-25T00:02:44.721Z,13.02
2022-10-25T00:03:44.720Z,13.05
2022-10-25T00:04:44.674Z,13.05
2022-10-25T00:05:44.689Z,13.08
2022-10-25T00:06:44.671Z,13.09
2022-10-25T00:07:45.007Z,13.13
2022-10-25T00:08:44.634Z,13.14
2022-10-25T00:09:44.610Z,13.14
2022-10-25T00:10:44.620Z,13.11
2022-10-25T00:11:44.621Z,13.09
2022-10-25T00:12:44.612Z,13.08
2022-10-25T00:13:44.580Z,13.06
2022-10-25T00:14:44.568Z,13.06
2022-10-25T00:15:44.560Z,13.05
2022-10-25T00:16:46.138Z,13.05
2022-10-25T00:17:44.734Z,13.02
2022-10-25T00:18:44.526Z,13.04
2022-10-25T00:19:44.536Z,13.02
2022-10-25T00:20:44.515Z,13.02
2022-10-25T00:21:44.492Z,13.02
2022-10-25T00:22:44.811Z,13.02
2022-10-25T00:23:46.124Z,13.01
2022-10-25T00:24:44.463Z,12.99
2022-10-25T00:25:44.471Z,12.99
2022-10-25T00:26:44.443Z,12.99
2022-10-25T00:27:44.415Z,12.99
2022-10-25T00:28:44.428Z,13.01
2022-10-25T00:29:44.499Z,12.98
2022-10-25T00:30:44.435Z,12.99
2022-10-25T00:31:44.399Z,12.96
2022-10-25T00:32:44.760Z,12.95
2022-10-25T00:33:45.366Z,12.95
2022-10-25T00:34:44.368Z,12.95
2022-10-25T00:35:44.338Z,12.96
2022-10-25T00:36:44.369Z,13.01
2022-10-25T00:38:44.309Z,13.02
2022-10-25T00:39:44.297Z,13.04
2022-10-25T00:40:44.288Z,13.08
2022-10-25T00:41:44.274Z,13.09
2022-10-25T00:42:44.496Z,13.09
2022-10-25T00:43:44.243Z,13.14
2022-10-25T00:44:44.259Z,13.16
2022-10-25T00:45:44.268Z,13.17
2022-10-25T00:46:44.224Z,13.17
2022-10-25T00:47:44.469Z,13.19
2022-10-25T00:48:44.286Z,13.19
2022-10-25T00:49:44.194Z,13.19
2022-10-25T00:50:44.180Z,13.19
2022-10-25T00:51:44.207Z,13.17
2022-10-25T00:52:44.188Z,13.17
2022-10-25T00:53:44.151Z,13.21
2022-10-25T00:54:44.141Z,13.23
2022-10-25T00:55:44.132Z,13.24
2022-10-25T00:56:44.122Z,13.23
2022-10-25T00:57:44.516Z,13.21
2022-10-25T00:58:44.112Z,13.20
2022-10-25T00:59:44.098Z,13.20
2022-10-25T01:00:44.085Z,13.20
2022-10-25T01:01:44.217Z,13.20
2022-10-25T01:02:44.215Z,13.23
2022-10-25T01:03:44.041Z,13.24
2022-10-25T01:04:44.035Z,13.29
2022-10-25T01:05:44.011Z,13.30
2022-10-25T01:06:44.021Z,13.30
2022-10-25T01:07:44.280Z,13.30
2022-10-25T01:08:44.024Z,13.30
2022-10-25T01:09:43.971Z,13.29
2022-10-25T01:10:43.972Z,13.35
2022-10-25T01:11:43.938Z,13.35
2022-10-25T01:12:47.387Z,13.35
2022-10-25T01:13:43.956Z,13.35
2022-10-25T01:14:43.918Z,13.36
2022-10-25T01:15:43.908Z,13.40
2022-10-25T01:16:44.045Z,13.39
2022-10-25T01:17:43.915Z,13.39
2022-10-25T01:18:43.908Z,13.39
2022-10-25T01:19:43.883Z,13.38
2022-10-25T01:20:43.944Z,13.38
2022-10-25T01:21:44.776Z,13.36
2022-10-25T01:22:44.001Z,13.38
2022-10-25T01:23:43.821Z,13.36
2022-10-25T01:24:43.848Z,13.35
2022-10-25T01:25:43.805Z,13.38
2022-10-25T01:26:43.805Z,13.38
2022-10-25T01:27:43.795Z,13.39
2022-10-25T01:28:43.785Z,13.39
2022-10-25T01:29:43.770Z,13.43
2022-10-25T01:30:43.771Z,13.45
2022-10-25T01:31:43.740Z,13.45
2022-10-25T01:32:43.897Z,13.45
2022-10-25T01:33:43.720Z,13.45
2022-10-25T01:34:43.729Z,13.45
2022-10-25T01:35:43.695Z,13.47
2022-10-25T01:36:43.696Z,13.46
2022-10-25T01:37:43.884Z,13.46
2022-10-25T01:38:43.663Z,13.46
2022-10-25T01:39:43.673Z,13.45
2022-10-25T01:40:43.668Z,13.45
2022-10-25T01:41:43.628Z,13.46
2022-10-25T01:42:43.629Z,13.46
2022-10-25T01:43:43.599Z,13.47
2022-10-25T01:44:43.626Z,13.46
2022-10-25T01:45:43.597Z,13.46
2022-10-25T01:46:43.579Z,13.47
2022-10-25T01:47:43.704Z,13.46
2022-10-25T01:48:43.567Z,13.49
2022-10-25T01:49:43.564Z,13.49
2022-10-25T01:50:43.541Z,13.49
2022-10-25T01:51:43.564Z,13.49
2022-10-25T01:52:43.566Z,13.49
2022-10-25T01:53:43.543Z,13.49
2022-10-25T01:54:43.494Z,13.47
2022-10-25T01:55:43.479Z,13.49
2022-10-25T01:56:43.483Z,13.53
2022-10-25T01:57:43.893Z,13.54
2022-10-25T01:58:43.748Z,13.54
2022-10-25T01:59:43.455Z,13.57
2022-10-25T02:00:43.502Z,13.57
2022-10-25T02:02:43.672Z,13.54
2022-10-25T02:03:43.413Z,13.55
2022-10-25T02:04:43.402Z,13.55
2022-10-25T02:05:43.371Z,13.60
2022-10-25T02:06:43.387Z,13.58
2022-10-25T02:07:43.351Z,13.60
2022-10-25T02:08:43.379Z,13.63
2022-10-25T02:09:43.356Z,13.63
2022-10-25T02:10:43.318Z,13.64
2022-10-25T02:11:43.303Z,13.61
2022-10-25T02:12:43.397Z,13.60
2022-10-25T02:13:43.292Z,13.60
2022-10-25T02:14:43.294Z,13.60
2022-10-25T02:15:43.265Z,13.60
2022-10-25T02:16:43.258Z,13.61
2022-10-25T02:17:43.238Z,13.63
2022-10-25T02:18:43.237Z,13.61
2022-10-25T02:19:43.211Z,13.60
2022-10-25T02:20:45.962Z,13.61
2022-10-25T02:21:43.196Z,13.61
2022-10-25T02:22:43.187Z,13.60
2022-10-25T02:23:43.176Z,13.61
2022-10-25T02:24:43.191Z,13.64
2022-10-25T02:25:43.181Z,13.64
2022-10-25T02:26:43.240Z,13.65
2022-10-25T02:27:43.171Z,13.65
2022-10-25T02:28:43.134Z,13.65
2022-10-25T02:29:43.116Z,13.67
2022-10-25T02:30:43.115Z,13.65
2022-10-25T02:31:43.092Z,13.65
2022-10-25T02:32:43.087Z,13.67
2022-10-25T02:33:43.094Z,13.67
2022-10-25T02:34:43.060Z,13.67
2022-10-25T02:35:43.050Z,13.65
2022-10-25T02:36:43.047Z,13.64
2022-10-25T02:37:43.028Z,13.64
2022-10-25T02:38:43.013Z,13.65
2022-10-25T02:39:43.011Z,13.68
2022-10-25T02:40:43.014Z,13.73
2022-10-25T02:41:43.013Z,13.73
2022-10-25T02:42:42.968Z,13.76
2022-10-25T02:43:42.950Z,13.79
2022-10-25T02:44:42.967Z,13.78
2022-10-25T02:45:42.960Z,13.76
2022-10-25T02:46:42.934Z,13.78
2022-10-25T02:47:42.914Z,13.78
2022-10-25T02:48:42.944Z,13.75
2022-10-25T02:49:42.894Z,13.75
2022-10-25T02:50:42.890Z,13.76
2022-10-25T02:51:42.916Z,13.78
2022-10-25T02:52:42.910Z,13.78
2022-10-25T02:53:42.873Z,13.76
2022-10-25T02:54:42.836Z,13.78
2022-10-25T02:55:42.826Z,13.79
2022-10-25T02:56:42.859Z,13.79
2022-10-25T02:57:42.839Z,13.80
2022-10-25T02:58:42.810Z,13.79
2022-10-25T02:59:42.786Z,13.78
2022-10-25T03:00:42.882Z,13.79
2022-10-25T03:01:42.807Z,13.80
2022-10-25T03:02:42.787Z,13.80
2022-10-25T03:03:42.753Z,13.82
2022-10-25T03:04:42.740Z,13.82
2022-10-25T03:05:42.741Z,13.79
2022-10-25T03:06:42.721Z,13.78
2022-10-25T03:07:42.736Z,13.79
2022-10-25T03:08:42.834Z,13.76
2022-10-25T03:09:42.689Z,13.75
2022-10-25T03:10:42.661Z,13.73
2022-10-25T03:11:42.651Z,13.72
2022-10-25T03:12:42.679Z,13.72
2022-10-25T03:13:42.633Z,13.72
2022-10-25T03:14:42.644Z,13.71
2022-10-25T03:15:42.606Z,13.73
2022-10-25T03:16:42.659Z,13.75
2022-10-25T03:17:42.599Z,13.75
2022-10-25T03:18:42.627Z,13.75
2022-10-25T03:19:42.581Z,13.75
2022-10-25T03:20:42.557Z,13.73
2022-10-25T03:21:42.560Z,13.75
2022-10-25T03:22:42.533Z,13.75
2022-10-25T03:23:42.545Z,13.76
2022-10-25T03:24:42.515Z,13.79
2022-10-25T03:25:42.508Z,13.78
2022-10-25T03:26:42.489Z,13.78
2022-10-25T03:27:42.488Z,13.79
2022-10-25T03:28:42.482Z,13.76
2022-10-25T03:29:42.498Z,13.78
2022-10-25T03:30:42.445Z,13.78
2022-10-25T03:31:42.441Z,13.78
2022-10-25T03:32:42.441Z,13.79
2022-10-25T03:33:42.417Z,13.79
2022-10-25T03:34:42.398Z,13.79
2022-10-25T03:35:42.419Z,13.78
2022-10-25T03:36:42.385Z,13.76
2022-10-25T03:37:42.381Z,13.78
2022-10-25T03:38:42.409Z,13.80
2022-10-25T03:39:42.359Z,13.80
2022-10-25T03:40:42.333Z,13.80
2022-10-25T03:41:42.342Z,13.76
2022-10-25T03:42:42.307Z,13.78
2022-10-25T03:43:42.311Z,13.76
2022-10-25T03:44:42.306Z,13.79
2022-10-25T03:45:42.314Z,13.79
2022-10-25T03:46:42.267Z,13.79
2022-10-25T03:47:42.261Z,13.78
2022-10-25T03:48:42.270Z,13.78
2022-10-25T03:49:42.243Z,13.79
2022-10-25T03:50:42.278Z,13.79
2022-10-25T03:51:42.222Z,13.78
2022-10-25T03:52:42.213Z,13.79
2022-10-25T03:53:42.211Z,13.79
2022-10-25T03:54:42.219Z,13.79
2022-10-25T03:55:42.181Z,13.78
2022-10-25T03:56:42.199Z,13.79
2022-10-25T03:57:42.162Z,13.79
2022-10-25T03:58:42.160Z,13.79
2022-10-25T03:59:42.197Z,13.79
2022-10-25T04:00:42.201Z,13.79
2022-10-25T04:01:42.246Z,13.82
2022-10-25T04:02:42.111Z,13.82
2022-10-25T04:03:42.085Z,13.80
2022-10-25T04:04:42.103Z,13.80
2022-10-25T04:05:42.071Z,13.78
2022-10-25T04:06:42.053Z,13.76
2022-10-25T04:07:42.120Z,13.75
2022-10-25T04:08:42.085Z,13.76
2022-10-25T04:09:42.057Z,13.76
2022-10-25T04:10:42.002Z,13.75
2022-10-25T04:11:42.028Z,13.76
2022-10-25T04:12:42.075Z,13.78
2022-10-25T04:13:42.035Z,13.75
2022-10-25T04:14:41.964Z,13.73
2022-10-25T04:15:41.955Z,13.73
2022-10-25T04:16:41.961Z,13.68
2022-10-25T04:17:41.990Z,13.68
2022-10-25T04:18:41.971Z,13.68
2022-10-25T04:19:41.917Z,13.65
2022-10-25T04:20:41.903Z,13.67
2022-10-25T04:21:41.898Z,13.67
2022-10-25T04:22:41.895Z,13.67
2022-10-25T04:23:41.913Z,13.68
2022-10-25T04:24:41.884Z,13.65
2022-10-25T04:25:41.890Z,13.67
2022-10-25T04:26:41.831Z,13.67
2022-10-25T04:27:41.819Z,13.68
2022-10-25T04:28:41.831Z,13.65
2022-10-25T04:29:41.817Z,13.65
2022-10-25T04:30:42.940Z,13.65
2022-10-25T04:31:41.802Z,13.65
2022-10-25T04:32:41.763Z,13.71
2022-10-25T04:33:45.140Z,13.71
2022-10-25T04:34:41.749Z,13.71
2022-10-25T04:35:41.737Z,13.72
2022-10-25T04:36:41.724Z,13.71
2022-10-25T04:37:41.734Z,13.71
2022-10-25T04:38:41.712Z,13.68
2022-10-25T04:39:43.326Z,13.68
2022-10-25T04:40:41.688Z,13.65
2022-10-25T04:41:41.680Z,13.64
2022-10-25T04:42:41.701Z,13.65
2022-10-25T04:43:41.659Z,13.63
2022-10-25T04:44:41.641Z,13.64
2022-10-25T04:45:41.657Z,13.64
2022-10-25T04:46:45.147Z,13.65
2022-10-25T04:47:41.650Z,13.65
2022-10-25T04:48:41.587Z,13.64
2022-10-25T04:49:41.635Z,13.64
2022-10-25T04:50:41.626Z,13.63
2022-10-25T04:51:41.614Z,13.64
2022-10-25T04:52:41.557Z,13.63
2022-10-25T04:53:41.549Z,13.61
2022-10-25T04:54:42.340Z,13.58
2022-10-25T04:55:41.561Z,13.58
2022-10-25T04:56:41.548Z,13.58
2022-10-25T04:57:41.521Z,13.60
2022-10-25T04:58:41.488Z,13.55
2022-10-25T04:59:41.479Z,13.58
2022-10-25T05:00:41.490Z,13.57
2022-10-25T05:01:41.630Z,13.55
2022-10-25T05:02:41.460Z,13.57
2022-10-25T05:03:41.454Z,13.57
2022-10-25T05:04:41.425Z,13.54
2022-10-25T05:05:41.436Z,13.54
2022-10-25T05:06:41.426Z,13.55
2022-10-25T05:07:41.396Z,13.54
2022-10-25T05:08:41.386Z,13.54
2022-10-25T05:09:43.920Z,13.54
2022-10-25T05:10:41.368Z,13.55
2022-10-25T05:11:41.368Z,13.54
2022-10-25T05:12:41.354Z,13.54
2022-10-25T05:13:41.330Z,13.54
2022-10-25T05:14:41.322Z,13.55
2022-10-25T05:15:41.309Z,13.57
2022-10-25T05:16:41.301Z,13.58
2022-10-25T05:17:41.327Z,13.58
2022-10-25T05:18:41.664Z,13.61
2022-10-25T05:19:41.273Z,13.60
2022-10-25T05:20:41.260Z,13.60
2022-10-25T05:21:41.253Z,13.58
2022-10-25T05:22:41.263Z,13.54
2022-10-25T05:23:41.230Z,13.51
2022-10-25T05:24:41.212Z,13.49
2022-10-25T05:25:41.231Z,13.45
2022-10-25T05:26:41.195Z,13.42
2022-10-25T05:27:41.250Z,13.38
2022-10-25T05:28:41.197Z,13.35
2022-10-25T05:29:41.189Z,13.38
2022-10-25T05:30:41.159Z,13.36
2022-10-25T05:31:41.180Z,13.35
2022-10-25T05:32:41.130Z,13.30
2022-10-25T05:33:41.154Z,13.29
2022-10-25T05:34:41.113Z,13.29
2022-10-25T05:35:41.094Z,13.27
2022-10-25T05:36:41.092Z,13.27
2022-10-25T05:37:41.100Z,13.29
2022-10-25T05:38:41.058Z,13.26
2022-10-25T05:39:41.089Z,13.23
2022-10-25T05:40:41.041Z,13.21
2022-10-25T05:41:41.040Z,13.21
2022-10-25T05:42:41.026Z,13.19
2022-10-25T05:43:41.056Z,13.17
2022-10-25T05:44:41.022Z,13.14
2022-10-25T05:45:41.023Z,13.16
2022-10-25T05:46:40.998Z,13.16
2022-10-25T05:47:40.979Z,13.17
2022-10-25T05:48:45.800Z,13.16
2022-10-25T05:49:40.986Z,13.14
2022-10-25T05:51:40.900Z,13.16
2022-10-25T05:52:41.030Z,13.16
2022-10-25T05:53:40.931Z,13.13
2022-10-25T05:54:40.876Z,13.11
2022-10-25T05:55:40.854Z,13.11
2022-10-25T05:56:40.828Z,13.08
2022-10-25T05:57:40.848Z,13.08
2022-10-25T05:58:41.025Z,13.05
2022-10-25T05:59:40.818Z,13.04
2022-10-25T06:00:40.794Z,13.02
2022-10-25T06:01:41.008Z,12.98
2022-10-25T06:02:40.786Z,12.98
2022-10-25T06:03:40.755Z,12.99
2022-10-25T06:04:40.753Z,12.98
2022-10-25T06:05:40.756Z,13.02
2022-10-25T06:06:40.775Z,12.99
2022-10-25T06:07:40.713Z,12.98
2022-10-25T06:08:40.693Z,13.02
2022-10-25T06:09:40.713Z,13.04
2022-10-25T06:10:40.738Z,13.01
2022-10-25T06:11:40.683Z,12.99
2022-10-25T06:12:40.657Z,13.01
2022-10-25T06:13:40.654Z,13.02
2022-10-25T06:14:40.707Z,13.02
2022-10-25T06:15:40.613Z,13.05
2022-10-25T06:16:40.619Z,13.05
2022-10-25T06:17:40.615Z,13.04
2022-10-25T06:18:40.617Z,12.98
2022-10-25T06:19:40.606Z,12.96
2022-10-25T06:21:40.610Z,12.90
2022-10-25T06:22:40.564Z,12.88
2022-10-25T06:23:40.556Z,12.86
2022-10-25T06:24:40.584Z,12.86
2022-10-25T06:25:40.537Z,12.87
2022-10-25T06:26:40.521Z,12.88
2022-10-25T06:27:40.506Z,12.90
2022-10-25T06:28:40.557Z,12.88
2022-10-25T06:29:40.680Z,12.90
2022-10-25T06:30:40.447Z,12.91
2022-10-25T06:31:40.476Z,12.91
2022-10-25T06:32:40.448Z,12.96
2022-10-25T06:33:40.445Z,13.02
2022-10-25T06:34:40.421Z,13.05
2022-10-25T06:35:40.407Z,13.05
2022-10-25T06:36:40.404Z,13.04
2022-10-25T06:37:40.474Z,13.02
2022-10-25T06:38:40.370Z,13.02
2022-10-25T06:39:40.370Z,13.01
2022-10-25T06:40:40.349Z,12.99
2022-10-25T06:41:40.356Z,12.96
2022-10-25T06:42:40.368Z,12.95
2022-10-25T06:43:40.325Z,12.91
2022-10-25T06:44:40.331Z,12.91
2022-10-25T06:45:40.315Z,12.98
2022-10-25T06:47:11.516Z,13.02
2022-10-25T06:47:40.295Z,13.02
2022-10-25T06:48:40.289Z,13.04
2022-10-25T06:49:40.313Z,13.08
2022-10-25T06:50:40.256Z,13.14
2022-10-25T06:51:40.242Z,13.16
2022-10-25T06:52:40.233Z,13.16
2022-10-25T06:53:40.249Z,13.17
2022-10-25T06:54:40.208Z,13.19
2022-10-25T06:55:40.193Z,13.19
2022-10-25T06:56:40.183Z,13.23
2022-10-25T06:57:40.204Z,13.24
2022-10-25T06:58:40.205Z,13.26
2022-10-25T06:59:40.183Z,13.27
2022-10-25T07:00:40.153Z,13.27
2022-10-25T07:01:40.277Z,13.29
2022-10-25T07:02:40.119Z,13.30
2022-10-25T07:03:40.207Z,13.35
2022-10-25T07:04:40.123Z,13.35
2022-10-25T07:05:40.116Z,13.35
2022-10-25T07:06:40.086Z,13.36
2022-10-25T07:07:40.076Z,13.35
2022-10-25T07:08:40.067Z,13.39
2022-10-25T07:09:40.075Z,13.40
2022-10-25T07:10:40.042Z,13.40
2022-10-25T07:11:40.050Z,13.40
2022-10-25T07:12:40.010Z,13.42
2022-10-25T07:13:40.005Z,13.42
2022-10-25T07:14:39.994Z,13.45
2022-10-25T07:15:42.145Z,13.45
2022-10-25T07:16:40.003Z,13.43
2022-10-25T07:17:39.972Z,13.43
2022-10-25T07:18:39.948Z,13.45
2022-10-25T07:19:39.969Z,13.46
2022-10-25T07:20:39.949Z,13.46
2022-10-25T07:21:40.635Z,13.47
2022-10-25T07:22:39.941Z,13.55
2022-10-25T07:23:39.947Z,13.58
2022-10-25T07:24:40.022Z,13.60
2022-10-25T07:25:39.934Z,13.61
2022-10-25T07:26:40.065Z,13.61
2022-10-25T07:27:39.974Z,13.63
2022-10-25T07:28:39.912Z,13.65
2022-10-25T07:29:40.124Z,13.64
2022-10-25T07:30:39.854Z,13.64
2022-10-25T07:31:39.849Z,13.67
2022-10-25T07:32:41.695Z,13.63
2022-10-25T07:33:39.898Z,13.61
2022-10-25T07:34:39.859Z,13.60
2022-10-25T07:35:52.219Z,13.60
2022-10-25T07:36:39.841Z,13.61
2022-10-25T07:37:39.916Z,13.60
2022-10-25T07:38:39.912Z,13.61
2022-10-25T07:39:39.796Z,13.61
2022-10-25T07:40:39.931Z,13.61
2022-10-25T07:41:39.842Z,13.61
2022-10-25T07:42:39.856Z,13.63
2022-10-25T07:43:39.743Z,13.63
2022-10-25T07:44:39.704Z,13.65
2022-10-25T07:45:39.832Z,13.67
2022-10-25T07:46:39.670Z,13.71
2022-10-25T07:47:41.456Z,13.72
2022-10-25T07:48:39.634Z,13.78
2022-10-25T07:49:40.794Z,13.82
2022-10-25T07:50:40.331Z,13.86
2022-10-25T07:51:39.970Z,13.90
2022-10-25T07:52:39.989Z,13.90
2022-10-25T07:53:40.114Z,13.93
2022-10-25T07:54:40.056Z,13.90
2022-10-25T07:55:39.732Z,13.93
2022-10-25T07:56:40.314Z,13.96
2022-10-25T07:57:40.299Z,13.97
2022-10-25T07:58:39.695Z,14.00
2022-10-25T07:59:39.876Z,14.00
2022-10-25T08:00:39.755Z,14.08
2022-10-25T08:01:40.107Z,14.15
2022-10-25T08:02:40.850Z,14.21
2022-10-25T08:03:40.149Z,14.18
2022-10-25T08:04:39.693Z,14.18
2022-10-25T08:05:40.097Z,14.22
2022-10-25T08:06:40.117Z,14.19
2022-10-25T08:07:39.678Z,14.16
2022-10-25T08:08:39.787Z,14.15
2022-10-25T08:09:39.460Z,14.13
2022-10-25T08:10:39.590Z,14.13
2022-10-25T08:11:39.484Z,14.15
2022-10-25T08:12:39.981Z,14.13
2022-10-25T08:13:40.816Z,14.13
2022-10-25T08:14:41.626Z,14.12
2022-10-25T08:15:39.349Z,14.16
2022-10-25T08:16:39.494Z,14.16
2022-10-25T08:17:39.474Z,14.16
2022-10-25T08:18:39.463Z,14.15
2022-10-25T08:19:39.738Z,14.13
2022-10-25T08:21:39.323Z,14.13
2022-10-25T08:22:39.378Z,14.15
2022-10-25T08:23:39.604Z,14.12
2022-10-25T08:24:39.294Z,14.13
2022-10-25T08:25:39.265Z,14.16
2022-10-25T08:26:39.649Z,14.19
2022-10-25T08:27:39.295Z,14.22
2022-10-25T08:28:39.581Z,14.21
2022-10-25T08:29:39.701Z,14.22
2022-10-25T08:30:39.463Z,14.23
2022-10-25T08:31:39.267Z,14.23
2022-10-25T08:32:39.169Z,14.22
2022-10-25T08:33:39.201Z,14.21
2022-10-25T08:34:39.182Z,14.22
2022-10-25T08:35:39.118Z,14.26
2022-10-25T08:36:39.428Z,14.23
2022-10-25T08:37:39.169Z,14.22
2022-10-25T08:38:39.101Z,14.22
2022-10-25T08:39:39.206Z,14.28
2022-10-25T08:40:39.166Z,14.28
2022-10-25T08:41:39.123Z,14.28
2022-10-25T08:42:39.056Z,14.22
2022-10-25T08:43:39.949Z,14.23
2022-10-25T08:44:39.019Z,14.27
2022-10-25T08:45:38.999Z,14.23
2022-10-25T08:46:39.023Z,14.26
2022-10-25T08:47:38.982Z,14.27
2022-10-25T08:48:39.005Z,14.28
2022-10-25T08:49:40.130Z,14.30
2022-10-25T08:50:39.191Z,14.31
2022-10-25T08:51:39.609Z,14.27
2022-10-25T08:52:39.170Z,14.28
2022-10-25T08:53:42.946Z,14.30
2022-10-25T08:54:39.149Z,14.27
2022-10-25T08:55:44.580Z,14.23
2022-10-25T08:56:56.546Z,14.27
2022-10-25T08:57:40.125Z,14.22
2022-10-25T08:58:39.040Z,14.18
2022-10-25T08:59:43.589Z,14.18
2022-10-25T09:00:38.855Z,14.19
2022-10-25T09:01:38.945Z,14.22
2022-10-25T09:02:38.842Z,14.23
2022-10-25T09:03:38.907Z,14.23
2022-10-25T09:04:38.798Z,14.23
2022-10-25T09:05:38.775Z,14.23
2022-10-25T09:06:38.787Z,14.26
2022-10-25T09:07:40.677Z,14.23
2022-10-25T09:08:38.764Z,14.22
2022-10-25T09:09:38.768Z,14.19
2022-10-25T09:10:38.765Z,14.16
2022-10-25T09:11:38.802Z,14.16
2022-10-25T09:12:38.758Z,14.18
2022-10-25T09:13:38.684Z,14.18
2022-10-25T09:14:38.776Z,14.19
2022-10-25T09:15:41.998Z,14.19
2022-10-25T09:16:38.671Z,14.21
2022-10-25T09:17:38.672Z,14.28
2022-10-25T09:18:38.653Z,14.34
2022-10-25T09:19:38.725Z,14.36
2022-10-25T09:20:38.641Z,14.44
2022-10-25T09:21:38.839Z,14.45
2022-10-25T09:22:38.608Z,14.48
2022-10-25T09:23:38.582Z,14.51
2022-10-25T09:24:38.579Z,14.51
2022-10-25T09:25:38.642Z,14.53
2022-10-25T09:26:38.593Z,14.49
2022-10-25T09:27:38.575Z,14.46
2022-10-25T09:28:38.588Z,14.41
2022-10-25T09:29:38.605Z,14.37
2022-10-25T09:30:38.570Z,14.36
2022-10-25T09:31:38.512Z,14.31
2022-10-25T09:32:38.558Z,14.33
2022-10-25T09:33:38.535Z,14.31
2022-10-25T09:34:38.531Z,14.30
2022-10-25T09:35:38.471Z,14.28
2022-10-25T09:36:38.566Z,14.33
2022-10-25T09:37:38.441Z,14.34
2022-10-25T09:38:38.446Z,14.37
2022-10-25T09:39:38.430Z,14.44
2022-10-25T09:40:44.952Z,14.45
2022-10-25T09:41:38.388Z,14.51
2022-10-25T09:42:38.400Z,14.53
2022-10-25T09:43:38.451Z,14.56
2022-10-25T09:44:38.375Z,14.56
2022-10-25T09:45:39.863Z,14.56
2022-10-25T09:46:38.365Z,14.59
2022-10-25T09:47:38.331Z,14.58
2022-10-25T09:48:38.372Z,14.63
2022-10-25T09:49:38.627Z,14.67
2022-10-25T09:50:38.594Z,14.70
2022-10-25T09:51:38.307Z,14.70
2022-10-25T09:52:38.436Z,14.82
2022-10-25T09:53:38.281Z,14.87
2022-10-25T09:54:38.992Z,14.90
2022-10-25T09:55:38.253Z,14.96
2022-10-25T09:56:38.230Z,15.03
2022-10-25T09:57:38.221Z,15.19
2022-10-25T09:58:38.241Z,15.14
2022-10-25T09:59:38.199Z,15.14
2022-10-25T10:00:38.205Z,14.99
2022-10-25T10:01:38.286Z,14.87
2022-10-25T10:02:38.327Z,14.83
2022-10-25T10:03:38.201Z,14.89
2022-10-25T10:04:38.219Z,15.04
2022-10-25T10:05:38.207Z,15.12
2022-10-25T10:06:38.521Z,15.23
2022-10-25T10:07:38.145Z,15.25
2022-10-25T10:08:38.281Z,15.27
2022-10-25T10:09:41.032Z,15.26
2022-10-25T10:10:38.497Z,15.23
2022-10-25T10:11:39.903Z,15.35
2022-10-25T10:12:38.084Z,15.43
2022-10-25T10:13:38.083Z,15.44
2022-10-25T10:14:38.087Z,15.60
2022-10-25T10:15:38.027Z,15.62
2022-10-25T10:16:38.037Z,15.85
2022-10-25T10:17:38.090Z,15.90
2022-10-25T10:18:38.042Z,15.88
2022-10-25T10:19:37.998Z,15.98
2022-10-25T10:20:37.999Z,15.95
2022-10-25T10:21:37.958Z,15.62
2022-10-25T10:22:38.030Z,15.54
2022-10-25T10:23:38.335Z,15.44
2022-10-25T10:24:37.945Z,15.41
2022-10-25T10:25:37.966Z,15.41
2022-10-25T10:26:37.919Z,15.50
2022-10-25T10:27:37.921Z,15.59
2022-10-25T10:28:37.948Z,15.69
2022-10-25T10:29:37.886Z,15.73
2022-10-25T10:30:37.940Z,15.95
2022-10-25T10:31:37.867Z,16.08
2022-10-25T10:32:37.941Z,15.96
2022-10-25T10:33:37.831Z,16.02
2022-10-25T10:34:37.925Z,16.06
2022-10-25T10:35:37.833Z,16.21
2022-10-25T10:36:37.799Z,16.14
2022-10-25T10:37:37.791Z,15.90
2022-10-25T10:38:37.898Z,15.93
2022-10-25T10:39:37.814Z,16.09
2022-10-25T10:40:37.829Z,16.02
2022-10-25T10:41:38.181Z,15.99
2022-10-25T10:42:37.923Z,15.95
2022-10-25T10:43:37.816Z,15.88
2022-10-25T10:44:37.720Z,15.91
2022-10-25T10:45:37.736Z,15.99
2022-10-25T10:46:37.759Z,16.03
2022-10-25T10:47:37.706Z,15.99
2022-10-25T10:48:42.959Z,16.09
2022-10-25T10:49:37.663Z,16.44
2022-10-25T10:50:37.685Z,16.33
2022-10-25T10:51:45.536Z,16.21
2022-10-25T10:52:37.695Z,16.10
2022-10-25T10:53:37.628Z,16.02
2022-10-25T10:54:37.619Z,16.37
2022-10-25T10:55:37.640Z,16.52
2022-10-25T10:56:37.667Z,16.32
2022-10-25T10:57:37.655Z,16.72
2022-10-25T10:58:37.583Z,17.41
2022-10-25T10:59:37.576Z,18.23
2022-10-25T11:00:37.581Z,18.60
2022-10-25T11:01:37.855Z,18.51
2022-10-25T11:02:37.844Z,18.54
2022-10-25T11:03:37.531Z,19.17
2022-10-25T11:04:37.528Z,18.61
2022-10-25T11:05:37.502Z,18.57
2022-10-25T11:06:37.533Z,18.64
2022-10-25T11:07:37.478Z,18.49
2022-10-25T11:08:37.476Z,18.30
2022-10-25T11:09:37.857Z,17.83
2022-10-25T11:10:37.728Z,17.76
2022-10-25T11:11:37.420Z,17.71
2022-10-25T11:12:41.083Z,17.86
2022-10-25T11:13:37.411Z,17.54
2022-10-25T11:14:38.085Z,17.62
2022-10-25T11:15:37.395Z,17.22
2022-10-25T11:16:37.465Z,16.83
2022-10-25T11:17:37.360Z,16.62
2022-10-25T11:18:37.396Z,16.46
2022-10-25T11:19:37.401Z,16.16
2022-10-25T11:20:38.132Z,15.96
2022-10-25T11:21:37.396Z,16.17
2022-10-25T11:22:37.390Z,16.34
2022-10-25T11:23:37.389Z,16.43
2022-10-25T11:24:37.334Z,16.24
2022-10-25T11:25:37.280Z,16.08
2022-10-25T11:26:37.341Z,16.10
2022-10-25T11:27:37.273Z,16.17
2022-10-25T11:28:37.241Z,16.08
2022-10-25T11:29:37.221Z,16.40
2022-10-25T11:30:37.394Z,16.94
2022-10-25T11:31:37.208Z,17.14
2022-10-25T11:32:37.734Z,17.38
2022-10-25T11:33:37.458Z,17.59
2022-10-25T11:34:37.517Z,17.63
2022-10-25T11:35:37.686Z,17.68
2022-10-25T11:36:37.210Z,17.32
2022-10-25T11:37:37.687Z,17.17
2022-10-25T11:38:37.332Z,16.99
2022-10-25T11:39:37.150Z,16.84
2022-10-25T11:40:37.187Z,16.90
2022-10-25T11:41:37.112Z,16.82
2022-10-25T11:42:37.197Z,16.79
2022-10-25T11:43:37.958Z,16.79
2022-10-25T11:44:37.106Z,16.69
2022-10-25T11:45:37.089Z,16.61
2022-10-25T11:46:37.123Z,16.51
2022-10-25T11:47:40.972Z,16.69
2022-10-25T11:48:37.053Z,16.97
2022-10-25T11:49:37.023Z,17.07
2022-10-25T11:50:36.984Z,17.38
2022-10-25T11:51:37.240Z,17.54
2022-10-25T11:52:36.972Z,17.84
2022-10-25T11:53:37.002Z,18.05
2022-10-25T11:54:36.949Z,18.02
2022-10-25T11:55:36.966Z,18.06
2022-10-25T11:56:37.077Z,18.06
2022-10-25T11:57:37.044Z,17.99
2022-10-25T11:58:36.924Z,17.46
2022-10-25T11:59:36.925Z,17.14
2022-10-25T12:00:36.903Z,16.88
2022-10-25T12:01:37.146Z,16.91
2022-10-25T12:02:36.992Z,17.10
2022-10-25T12:03:36.979Z,16.98
2022-10-25T12:04:37.985Z,17.16
2022-10-25T12:05:36.846Z,17.07
2022-10-25T12:06:39.803Z,16.97
2022-10-25T12:07:36.868Z,16.80
2022-10-25T12:08:36.807Z,16.72
2022-10-25T12:09:36.797Z,16.92
2022-10-25T12:10:36.820Z,17.12
2022-10-25T12:11:36.767Z,16.97
2022-10-25T12:12:36.768Z,16.98
2022-10-25T12:13:36.797Z,16.97
2022-10-25T12:14:36.735Z,17.20
2022-10-25T12:15:36.741Z,17.25
2022-10-25T12:16:36.711Z,17.10
2022-10-25T12:17:36.715Z,16.77
2022-10-25T12:18:36.757Z,16.58
2022-10-25T12:19:36.716Z,16.61
2022-10-25T12:20:36.686Z,16.70
2022-10-25T12:21:36.673Z,16.74
2022-10-25T12:22:36.690Z,16.91
2022-10-25T12:23:36.669Z,16.77
2022-10-25T12:24:36.630Z,16.58
2022-10-25T12:25:36.628Z,16.47
2022-10-25T12:26:36.618Z,16.64
2022-10-25T12:27:36.635Z,16.55
2022-10-25T12:28:36.593Z,16.69
2022-10-25T12:29:36.591Z,16.73
2022-10-25T12:30:36.568Z,16.70
2022-10-25T12:31:36.564Z,16.58
2022-10-25T12:32:36.553Z,16.58
2022-10-25T12:33:36.562Z,16.47
2022-10-25T12:34:36.544Z,16.39
2022-10-25T12:35:36.540Z,16.32
2022-10-25T12:36:36.530Z,16.29
2022-10-25T12:37:36.523Z,16.32
2022-10-25T12:38:36.515Z,16.33
2022-10-25T12:39:36.505Z,16.28
2022-10-25T12:40:37.654Z,16.43
2022-10-25T12:41:36.654Z,16.49
2022-10-25T12:42:36.450Z,16.57
2022-10-25T12:43:36.440Z,16.61
2022-10-25T12:44:36.435Z,16.67
2022-10-25T12:45:36.418Z,16.64
2022-10-25T12:46:36.443Z,16.54
2022-10-25T12:47:36.390Z,16.40
2022-10-25T12:48:36.439Z,16.26
2022-10-25T12:49:36.409Z,16.22
2022-10-25T12:50:36.390Z,16.34
2022-10-25T12:51:36.350Z,16.54
2022-10-25T12:52:36.330Z,17.34
2022-10-25T12:53:36.343Z,18.83
2022-10-25T12:54:36.327Z,18.91
2022-10-25T12:55:36.300Z,18.61
2022-10-25T12:56:36.288Z,18.71
2022-10-25T12:57:36.298Z,19.12